Current Conditions
Clear
Conditions



Pressure
1026.42 (mb) - 30.31 (inHG)
Visibility

8.7 (mimiles) - 14.0 (km)
   Temperature
30  °F
-1°C
28  °F
Dewpoint
93  %
 Humidity
   Wind Speed
0  mph
0  kts
0  km/h
0  m/s
   Wind Direction
Calm
Due North
   Airport Data
KAMG
Location Bacon County Airport 16 mi (25.74 km)
Metar :KAMG 030553Z AUTO 00000KT 9SM CLR M01/M02 A3031 RMK AO2 SLP262 T10111022 10022 21011 58008
Thu 3rd December 00:53 am
   Raw Metar Info
Raw METAR is the most common format in the world for the transmission of observational weather data. It is highly standardized through the International Civil Aviation Organization (ICAO), which allows it to be understood throughout most of the world.
   API Info
Data Provided by
https://www.checkwx.com/weather/KAMG
   © Info
CSS/SVG/PHP scripts were developed by weather34.com for use in the weather34 template © 2015-2020

Guide Info provided by Metar-Wikipedia